Time;durP1;ratioP1;P1;durP2;ratioP2;P2;SDS_P1;SDS_P2;PMS_P1;PMS_P2;Temp;Humidity;BMP_temperature;BMP_pressure;BME280_temperature;BME280_humidity;BME280_pressure;Samples;Min_cycle;Max_cycle;Signal;HPM_P1;HPM_P2
2021/04/27 00:01:55;;;;;;;7.00;6.27;;;8.10;80.40;;;;;;5092134;28;20436;-74
2021/04/27 00:04:21;;;;;;;6.43;5.80;;;8.10;81.00;;;;;;5101181;28;20202;-74
2021/04/27 00:06:47;;;;;;;7.33;5.87;;;7.90;80.80;;;;;;5111287;28;20420;-75
2021/04/27 00:09:16;;;;;;;7.67;6.00;;;7.80;80.50;;;;;;5098183;28;20437;-75
2021/04/27 00:11:44;;;;;;;6.60;6.00;;;7.70;81.60;;;;;;5098440;28;20452;-74
2021/04/27 00:14:10;;;;;;;9.83;6.17;;;7.70;82.30;;;;;;5091743;28;20433;-74
2021/04/27 00:16:36;;;;;;;7.13;6.43;;;7.60;83.00;;;;;;5103553;28;20442;-74
2021/04/27 00:19:03;;;;;;;6.70;5.93;;;7.50;83.60;;;;;;5111165;28;20501;-74
2021/04/27 00:21:29;;;;;;;6.97;6.30;;;7.40;84.20;;;;;;5082906;22;20971;-84
2021/04/27 00:24:00;;;;;;;10.43;6.30;;;7.30;85.00;;;;;;5014769;28;20450;-84
2021/04/27 00:26:28;;;;;;;8.23;6.97;;;7.30;86.20;;;;;;5015969;28;20449;-84
2021/04/27 00:28:56;;;;;;;7.23;6.50;;;7.20;87.30;;;;;;5015822;28;20452;-84
2021/04/27 00:31:23;;;;;;;7.03;6.20;;;7.30;88.00;;;;;;5014109;28;20470;-83
2021/04/27 00:33:53;;;;;;;10.10;6.90;;;7.20;87.80;;;;;;5030927;28;20419;-84
2021/04/27 00:36:19;;;;;;;8.57;6.33;;;7.20;87.40;;;;;;5028498;28;20434;-84
2021/04/27 00:38:50;;;;;;;7.60;6.67;;;7.20;87.80;;;;;;5016972;28;20407;-84
2021/04/27 00:41:18;;;;;;;6.47;5.87;;;7.20;87.70;;;;;;4999465;28;20570;-84
2021/04/27 00:43:44;;;;;;;9.47;6.60;;;7.20;87.30;;;;;;5011753;28;20458;-84
2021/04/27 00:46:12;;;;;;;8.30;7.40;;;7.20;86.30;;;;;;5016734;28;20432;-84
2021/04/27 00:48:40;;;;;;;9.60;6.80;;;7.20;85.70;;;;;;5002910;28;20744;-84
2021/04/27 00:51:06;;;;;;;7.43;6.57;;;7.20;85.50;;;;;;4996962;28;20453;-84
2021/04/27 00:53:37;;;;;;;8.53;6.53;;;7.20;85.50;;;;;;4998932;28;20904;-84
2021/04/27 00:56:08;;;;;;;12.30;7.60;;;7.20;85.50;;;;;;5002043;28;20426;-85
2021/04/27 00:58:36;;;;;;;8.90;7.07;;;7.30;85.20;;;;;;4998482;28;20447;-84
2021/04/27 01:01:02;;;;;;;9.30;7.33;;;7.20;85.60;;;;;;5031392;28;20423;-84
2021/04/27 01:03:28;;;;;;;9.50;6.90;;;7.20;85.80;;;;;;5004718;28;20432;-83
2021/04/27 01:06:02;;;;;;;7.47;6.83;;;7.30;85.10;;;;;;5000493;28;20448;-84
2021/04/27 01:08:55;;;;;;;10.70;7.57;;;7.20;86.20;;;;;;5031887;28;20409;-83
2021/04/27 01:11:32;;;;;;;8.43;7.50;;;7.20;86.20;;;;;;5027205;28;20505;-84
2021/04/27 01:14:12;;;;;;;10.70;7.70;;;7.10;85.40;;;;;;5030822;28;20419;-84
2021/04/27 01:16:55;;;;;;;7.10;6.40;;;7.10;85.50;;;;;;5004986;28;20450;-83
2021/04/27 01:19:56;;;;;;;7.70;6.93;;;6.90;87.20;;;;;;4995570;28;20405;-83
2021/04/27 01:23:09;;;;;;;8.57;7.03;;;6.80;88.50;;;;;;4981680;28;20469;-84
2021/04/27 01:26:12;;;;;;;8.47;7.23;;;6.80;89.60;;;;;;4987678;28;20985;-84
2021/04/27 01:28:46;;;;;;;10.20;7.73;;;6.70;89.40;;;;;;5011825;28;20493;-84
2021/04/27 01:31:16;;;;;;;8.20;7.40;;;6.70;89.90;;;;;;5012427;28;20785;-84
2021/04/27 01:33:46;;;;;;;8.13;7.23;;;6.60;90.80;;;;;;5001477;28;20435;-84
2021/04/27 01:36:14;;;;;;;9.23;8.33;;;6.50;91.40;;;;;;5018861;28;20505;-84
2021/04/27 01:38:53;;;;;;;8.13;7.33;;;6.40;91.80;;;;;;5030036;28;20863;-83
2021/04/27 01:41:22;;;;;;;9.93;7.80;;;6.40;91.70;;;;;;4998158;28;20585;-84
2021/04/27 01:43:54;;;;;;;7.70;6.90;;;6.40;92.20;;;;;;5008114;28;20435;-83
2021/04/27 01:46:23;;;;;;;7.97;7.27;;;6.30;92.70;;;;;;5014941;28;20516;-83
2021/04/27 01:48:54;;;;;;;8.93;8.07;;;6.20;93.00;;;;;;5015444;28;20424;-84
2021/04/27 01:51:27;;;;;;;9.67;7.10;;;6.20;93.50;;;;;;5020621;28;20487;-83
2021/04/27 01:54:14;;;;;;;8.35;7.03;;;6.10;94.10;;;;;;5011790;28;20519;-84
2021/04/27 01:56:42;;;;;;;7.70;6.90;;;6.10;94.60;;;;;;5014003;28;20194;-84
2021/04/27 01:59:08;;;;;;;11.10;7.37;;;6.10;95.10;;;;;;5030915;28;20895;-83
2021/04/27 02:01:40;;;;;;;11.10;7.53;;;6.00;95.60;;;;;;5002002;28;20431;-84
2021/04/27 02:04:08;;;;;;;7.65;6.85;;;5.90;96.20;;;;;;5010752;28;20432;-83
2021/04/27 02:06:49;;;;;;;8.90;7.77;;;5.90;96.20;;;;;;5014261;28;20639;-84
2021/04/27 02:09:16;;;;;;;7.00;6.30;;;5.90;96.60;;;;;;4984575;28;20458;-84
2021/04/27 02:11:52;;;;;;;8.27;6.50;;;5.90;97.30;;;;;;5014146;28;20291;-84
2021/04/27 02:14:29;;;;;;;6.97;6.27;;;5.90;96.80;;;;;;4998084;28;20422;-84
2021/04/27 02:17:05;;;;;;;8.23;7.35;;;5.90;97.10;;;;;;5007523;28;20440;-84
2021/04/27 02:19:39;;;;;;;8.20;7.05;;;5.80;97.40;;;;;;5030341;28;20510;-84
2021/04/27 02:22:38;;;;;;;11.73;7.90;;;5.80;97.80;;;;;;4942369;28;20233;-84
2021/04/27 02:25:31;;;;;;;10.55;7.43;;;5.80;97.90;;;;;;4996388;28;20497;-83
2021/04/27 02:28:00;;;;;;;9.00;7.10;;;5.80;97.80;;;;;;5010728;28;20253;-84
2021/04/27 02:30:28;;;;;;;10.70;7.75;;;5.80;98.10;;;;;;4995226;28;20459;-84
2021/04/27 02:32:59;;;;;;;8.93;6.83;;;5.80;97.90;;;;;;5014331;28;20168;-83
2021/04/27 02:35:30;;;;;;;9.20;7.55;;;5.80;97.70;;;;;;5028620;28;20444;-83
2021/04/27 02:38:00;;;;;;;10.68;7.90;;;5.80;98.30;;;;;;5012372;28;20496;-84
2021/04/27 02:40:38;;;;;;;11.02;7.35;;;5.80;98.40;;;;;;5013241;28;20183;-84
2021/04/27 02:43:09;;;;;;;8.20;7.20;;;5.80;98.20;;;;;;5024465;28;20187;-84
2021/04/27 02:45:47;;;;;;;10.18;7.60;;;5.80;98.60;;;;;;5020352;28;20864;-84
2021/04/27 02:48:29;;;;;;;8.70;7.80;;;5.80;98.50;;;;;;5014263;28;20187;-84
2021/04/27 02:51:06;;;;;;;9.05;7.22;;;5.70;98.70;;;;;;5009960;28;20268;-83
2021/04/27 02:53:45;;;;;;;8.80;7.80;;;5.70;99.10;;;;;;5018570;28;20178;-83
2021/04/27 02:56:19;;;;;;;12.37;7.13;;;5.70;99.10;;;;;;5009970;28;20427;-84
2021/04/27 02:58:49;;;;;;;10.43;7.57;;;5.60;99.30;;;;;;5010432;28;20445;-84
2021/04/27 03:01:18;;;;;;;8.33;7.40;;;5.60;99.60;;;;;;5011196;28;20199;-84
2021/04/27 03:03:48;;;;;;;9.37;8.23;;;5.60;99.40;;;;;;4993731;28;20418;-83
2021/04/27 03:06:20;;;;;;;8.98;7.57;;;5.50;99.30;;;;;;5015806;28;20424;-83
2021/04/27 03:09:11;;;;;;;9.05;7.38;;;5.50;99.70;;;;;;5013690;28;20201;-83
2021/04/27 03:11:42;;;;;;;9.23;7.77;;;5.50;99.80;;;;;;5011609;28;20217;-83
2021/04/27 03:14:13;;;;;;;8.57;7.50;;;5.50;99.70;;;;;;5022271;28;20428;-84
2021/04/27 03:16:42;;;;;;;8.88;7.63;;;5.50;99.60;;;;;;4994468;28;20421;-84
2021/04/27 03:19:09;;;;;;;8.93;7.70;;;5.40;99.90;;;;;;5005228;28;20645;-84
2021/04/27 03:21:49;;;;;;;7.88;7.07;;;5.40;99.90;;;;;;5011816;28;20577;-83
2021/04/27 03:24:19;;;;;;;10.80;8.00;;;5.40;99.90;;;;;;5016994;28;20181;-83
2021/04/27 03:26:45;;;;;;;13.40;7.88;;;5.30;99.90;;;;;;5012555;28;20307;-83
2021/04/27 03:29:23;;;;;;;8.38;7.45;;;5.20;99.90;;;;;;4997926;28;20572;-83
2021/04/27 03:32:02;;;;;;;10.93;7.65;;;5.20;99.90;;;;;;5013693;28;20293;-84
2021/04/27 03:34:36;;;;;;;9.95;6.32;;;5.20;99.90;;;;;;5006169;28;20179;-84
2021/04/27 03:37:03;;;;;;;9.55;7.22;;;5.20;99.90;;;;;;5029404;28;20774;-84
2021/04/27 03:39:33;;;;;;;8.85;7.50;;;5.20;99.90;;;;;;4999931;28;20182;-84
2021/04/27 03:41:59;;;;;;;8.95;7.00;;;5.10;99.90;;;;;;5025149;28;20239;-83
2021/04/27 03:44:32;;;;;;;9.18;7.60;;;5.00;99.90;;;;;;5018089;28;20182;-83
2021/04/27 03:46:59;;;;;;;11.00;7.30;;;5.00;99.90;;;;;;4994378;28;20613;-83
2021/04/27 03:49:27;;;;;;;9.05;8.15;;;4.90;99.90;;;;;;4993812;28;20199;-83
2021/04/27 03:52:00;;;;;;;11.45;7.97;;;4.90;99.90;;;;;;4994511;28;20222;-83
2021/04/27 03:54:33;;;;;;;8.50;7.60;;;4.90;99.90;;;;;;4993289;28;20170;-83
2021/04/27 03:57:04;;;;;;;8.80;7.50;;;4.80;99.90;;;;;;5009264;28;20261;-83
2021/04/27 03:59:42;;;;;;;9.38;7.63;;;4.80;99.90;;;;;;5031834;28;20181;-83
2021/04/27 04:02:08;;;;;;;9.85;7.63;;;4.70;99.90;;;;;;5016922;28;20214;-83
2021/04/27 04:04:39;;;;;;;8.87;6.90;;;4.60;99.90;;;;;;5007224;28;20555;-83
2021/04/27 04:07:17;;;;;;;9.50;8.50;;;4.60;99.90;;;;;;4998006;28;20485;-83
2021/04/27 04:10:06;;;;;;;9.45;7.22;;;4.60;99.90;;;;;;5001050;28;20235;-83
2021/04/27 04:12:35;;;;;;;11.52;8.38;;;4.60;99.90;;;;;;5015670;28;20289;-83
2021/04/27 04:15:10;;;;;;;10.50;8.23;;;4.60;99.90;;;;;;5022677;28;20194;-83
2021/04/27 04:17:42;;;;;;;7.63;6.70;;;4.60;99.90;;;;;;4997119;28;20194;-83
2021/04/27 04:20:17;;;;;;;11.02;7.70;;;4.50;99.90;;;;;;4996328;28;20166;-83
2021/04/27 04:22:55;;;;;;;10.20;8.88;;;4.60;99.90;;;;;;5025330;28;20307;-83
2021/04/27 04:25:29;;;;;;;8.00;7.20;;;4.50;99.90;;;;;;5030704;28;20261;-83
2021/04/27 04:28:00;;;;;;;11.55;7.68;;;4.60;99.90;;;;;;4998152;28;20194;-84
2021/04/27 04:30:33;;;;;;;9.80;7.22;;;4.50;99.90;;;;;;5030550;28;20246;-83
2021/04/27 04:33:19;;;;;;;9.05;7.50;;;4.60;99.90;;;;;;4999666;28;20647;-83
2021/04/27 04:36:08;;;;;;;10.13;7.88;;;4.60;99.90;;;;;;4995434;28;20194;-83
2021/04/27 04:38:37;;;;;;;10.02;8.43;;;4.70;99.90;;;;;;5013585;28;20192;-83
2021/04/27 04:41:26;;;;;;;11.10;8.40;;;4.70;99.90;;;;;;5014434;28;20193;-83
2021/04/27 04:44:00;;;;;;;10.52;8.38;;;4.70;99.90;;;;;;4995444;28;20166;-83
2021/04/27 04:46:49;;;;;;;12.15;8.55;;;4.70;99.90;;;;;;4995042;28;20553;-82
2021/04/27 04:49:36;;;;;;;10.65;8.68;;;4.70;99.90;;;;;;4995572;28;20204;-84
2021/04/27 04:52:28;;;;;;;11.48;8.38;;;4.70;99.90;;;;;;4995827;28;20755;-84
2021/04/27 04:54:54;;;;;;;9.93;8.88;;;4.70;99.90;;;;;;4995427;28;20181;-82
2021/04/27 04:57:43;;;;;;;10.65;7.57;;;4.80;99.90;;;;;;5015370;28;20211;-82
2021/04/27 05:00:21;;;;;;;10.68;7.80;;;4.80;99.90;;;;;;4995375;28;20693;-83
2021/04/27 05:03:07;;;;;;;11.57;9.02;;;4.80;99.90;;;;;;4994394;28;20198;-83
2021/04/27 05:06:16;;;;;;;10.02;8.00;;;4.90;99.90;;;;;;4930436;29;20638;-82
2021/04/27 05:09:03;;;;;;;14.70;7.95;;;5.00;99.90;;;;;;5007234;28;20227;-82
2021/04/27 05:12:12;;;;;;;9.40;7.00;;;5.00;99.90;;;;;;4980759;28;20719;-81
2021/04/27 05:15:16;;;;;;;7.15;6.40;;;5.00;99.90;;;;;;4991518;28;20189;-83
2021/04/27 05:17:43;;;;;;;9.32;7.45;;;5.00;99.90;;;;;;5013264;28;20277;-81
2021/04/27 05:20:14;;;;;;;8.95;8.00;;;5.10;99.90;;;;;;5013751;28;20620;-82
2021/04/27 05:22:48;;;;;;;9.20;8.00;;;5.10;99.90;;;;;;5007036;28;20713;-81
2021/04/27 05:25:20;;;;;;;10.00;7.38;;;5.20;99.90;;;;;;4993888;28;20258;-82
2021/04/27 05:28:04;;;;;;;9.38;8.25;;;5.30;99.90;;;;;;5014626;28;20189;-82
2021/04/27 05:30:34;;;;;;;8.98;8.18;;;5.30;99.90;;;;;;5005015;28;20528;-82
2021/04/27 05:33:05;;;;;;;10.02;7.18;;;5.40;99.90;;;;;;5015815;28;20539;-82
2021/04/27 05:35:33;;;;;;;8.88;7.90;;;5.50;99.90;;;;;;5001159;28;20189;-82
2021/04/27 05:38:05;;;;;;;9.23;7.32;;;5.60;99.90;;;;;;4996526;28;20167;-82
2021/04/27 05:40:33;;;;;;;13.85;7.60;;;5.70;99.90;;;;;;4996230;28;20250;-82
2021/04/27 05:43:06;;;;;;;13.10;8.40;;;5.80;99.90;;;;;;5003342;28;20243;-82
2021/04/27 05:45:39;;;;;;;9.33;8.30;;;5.90;99.90;;;;;;5015311;28;20425;-82
2021/04/27 05:48:07;;;;;;;8.97;7.77;;;5.90;99.90;;;;;;5023184;28;20746;-83
2021/04/27 05:50:36;;;;;;;9.77;8.27;;;6.00;99.90;;;;;;5001235;28;20434;-82
2021/04/27 05:53:09;;;;;;;12.70;8.65;;;6.10;99.50;;;;;;5006929;28;20542;-82
2021/04/27 05:55:40;;;;;;;11.90;8.40;;;6.20;98.60;;;;;;4995150;28;20200;-82
2021/04/27 05:58:09;;;;;;;12.60;6.90;;;6.30;98.80;;;;;;4998313;28;20544;-82
2021/04/27 06:00:39;;;;;;;12.87;7.60;;;6.40;98.40;;;;;;4996292;28;20906;-83
2021/04/27 06:03:07;;;;;;;11.33;7.73;;;6.60;98.10;;;;;;5009686;28;20522;-82
2021/04/27 06:05:38;;;;;;;9.30;7.00;;;6.70;97.60;;;;;;5008255;28;20439;-83
2021/04/27 06:08:08;;;;;;;11.03;7.87;;;6.80;96.90;;;;;;5014356;28;20415;-83
2021/04/27 06:10:39;;;;;;;9.07;8.17;;;6.90;96.90;;;;;;5017049;28;20996;-83
2021/04/27 06:13:10;;;;;;;9.20;8.07;;;7.10;96.70;;;;;;5019635;28;20782;-83
2021/04/27 06:15:42;;;;;;;8.70;6.97;;;7.20;95.00;;;;;;5014182;28;20577;-83
2021/04/27 06:18:13;;;;;;;10.83;7.93;;;7.30;94.70;;;;;;5020725;28;20429;-83
2021/04/27 06:20:42;;;;;;;9.97;7.60;;;7.50;94.40;;;;;;4994827;28;20420;-82
2021/04/27 06:23:14;;;;;;;9.20;7.90;;;7.80;93.30;;;;;;5003326;28;20506;-83
2021/04/27 06:25:45;;;;;;;8.90;8.10;;;7.90;92.80;;;;;;5014397;28;20447;-83
2021/04/27 06:28:13;;;;;;;6.50;5.87;;;8.00;91.70;;;;;;5030467;28;20428;-83
2021/04/27 06:30:43;;;;;;;7.70;6.80;;;8.20;91.50;;;;;;5013596;28;20486;-83
2021/04/27 06:33:15;;;;;;;7.63;6.87;;;8.30;90.70;;;;;;5013822;28;20527;-83
2021/04/27 06:35:44;;;;;;;10.60;7.73;;;8.50;91.00;;;;;;5013937;28;20415;-83
2021/04/27 06:38:18;;;;;;;7.50;6.47;;;8.60;90.00;;;;;;5029577;28;20432;-83
2021/04/27 06:40:54;;;;;;;7.90;7.10;;;8.70;89.10;;;;;;5013769;28;20433;-83
2021/04/27 06:43:21;;;;;;;8.33;6.30;;;8.90;86.20;;;;;;5015385;28;20456;-82
2021/04/27 06:45:52;;;;;;;8.13;7.20;;;9.00;86.30;;;;;;4994793;28;20455;-83
2021/04/27 06:48:20;;;;;;;8.13;6.20;;;9.20;86.00;;;;;;4995370;28;20467;-83
2021/04/27 06:50:51;;;;;;;8.87;6.40;;;9.30;84.60;;;;;;4993777;28;20497;-82
2021/04/27 06:53:21;;;;;;;6.87;6.13;;;9.40;83.60;;;;;;4995297;28;20480;-82
2021/04/27 06:55:49;;;;;;;11.03;5.87;;;9.50;82.90;;;;;;4996161;28;20446;-84
2021/04/27 06:58:17;;;;;;;8.10;7.37;;;9.70;79.70;;;;;;5014366;28;20917;-85
2021/04/27 07:00:43;;;;;;;7.83;7.03;;;9.80;78.30;;;;;;5013149;28;20490;-85
2021/04/27 07:03:10;;;;;;;9.20;6.80;;;9.80;80.20;;;;;;5010404;28;20434;-84
2021/04/27 07:05:39;;;;;;;6.40;5.80;;;9.90;81.60;;;;;;4993775;28;20422;-84
2021/04/27 07:08:14;;;;;;;12.13;6.63;;;9.90;78.90;;;;;;5026366;28;20463;-87
2021/04/27 07:10:42;;;;;;;7.30;6.70;;;10.10;78.10;;;;;;5016637;28;20738;-84
2021/04/27 07:13:08;;;;;;;7.27;5.37;;;10.20;77.20;;;;;;5006703;28;20433;-84
2021/04/27 07:15:36;;;;;;;7.23;6.30;;;10.20;77.70;;;;;;5014263;28;20964;-85
2021/04/27 07:18:05;;;;;;;6.70;5.63;;;10.30;74.90;;;;;;5018581;28;20449;-84
2021/04/27 07:20:33;;;;;;;9.33;4.80;;;10.50;71.10;;;;;;4994190;28;20419;-84
2021/04/27 07:23:06;;;;;;;4.53;4.13;;;10.60;64.10;;;;;;5013395;28;20767;-84
2021/04/27 07:25:32;;;;;;;4.27;3.97;;;10.80;59.90;;;;;;5013069;28;20434;-85
2021/04/27 07:28:01;;;;;;;6.73;4.90;;;10.80;65.60;;;;;;5013486;28;20430;-84
2021/04/27 07:30:27;;;;;;;4.33;4.03;;;10.90;60.40;;;;;;5013376;28;20953;-86
2021/04/27 07:32:53;;;;;;;5.83;3.43;;;11.00;58.70;;;;;;5025280;28;20505;-85
2021/04/27 07:35:19;;;;;;;4.60;4.20;;;11.20;58.00;;;;;;5017713;28;20775;-85
2021/04/27 07:37:50;;;;;;;6.33;4.70;;;11.30;55.50;;;;;;5001444;28;20426;-84
2021/04/27 07:40:21;;;;;;;5.60;5.20;;;11.30;53.50;;;;;;5017153;28;20412;-84
2021/04/27 07:42:48;;;;;;;5.47;4.97;;;11.40;54.80;;;;;;5020036;28;20425;-84
2021/04/27 07:45:18;;;;;;;4.83;4.47;;;11.50;55.30;;;;;;5001232;28;20453;-84
2021/04/27 07:47:52;;;;;;;5.50;5.10;;;11.70;55.40;;;;;;5004802;28;20912;-85
2021/04/27 07:50:18;;;;;;;6.10;5.27;;;11.70;53.00;;;;;;5001315;28;20423;-85
2021/04/27 07:52:47;;;;;;;5.27;4.90;;;11.80;52.50;;;;;;5004632;28;20481;-85
2021/04/27 07:55:15;;;;;;;8.50;3.97;;;11.80;52.00;;;;;;5001939;28;20965;-85
2021/04/27 07:57:41;;;;;;;5.60;5.20;;;11.90;51.20;;;;;;5020723;28;20443;-85
2021/04/27 08:00:09;;;;;;;5.07;4.67;;;12.00;51.60;;;;;;5002471;28;20432;-85
2021/04/27 08:02:43;;;;;;;5.90;5.30;;;12.10;52.80;;;;;;5007006;28;20440;-85
2021/04/27 08:05:10;;;;;;;4.50;4.10;;;12.20;52.40;;;;;;5011576;28;20438;-84
2021/04/27 08:07:41;;;;;;;11.93;5.13;;;12.20;51.50;;;;;;5012455;28;20443;-84
2021/04/27 08:10:09;;;;;;;5.33;4.87;;;12.40;49.70;;;;;;5013683;28;20425;-85
2021/04/27 08:12:35;;;;;;;4.40;4.03;;;12.40;51.30;;;;;;5029164;28;20482;-85
2021/04/27 08:15:01;;;;;;;4.10;3.80;;;12.50;50.00;;;;;;5013278;28;20422;-85
2021/04/27 08:17:29;;;;;;;4.73;4.33;;;12.60;48.80;;;;;;4994069;28;20464;-85
2021/04/27 08:19:57;;;;;;;7.87;4.63;;;12.70;49.60;;;;;;5007761;28;20829;-85
2021/04/27 08:22:26;;;;;;;4.93;4.57;;;12.80;49.10;;;;;;4998618;28;20952;-84
2021/04/27 08:24:54;;;;;;;12.20;4.10;;;13.00;49.70;;;;;;5013145;28;20431;-84
2021/04/27 08:27:20;;;;;;;5.30;4.20;;;13.10;49.60;;;;;;5012343;28;20458;-84
2021/04/27 08:29:52;;;;;;;6.23;4.60;;;13.10;46.90;;;;;;5012030;28;20452;-84
2021/04/27 08:32:21;;;;;;;5.10;4.80;;;13.00;46.20;;;;;;5012857;28;20472;-85
2021/04/27 08:34:51;;;;;;;6.03;4.23;;;13.10;46.10;;;;;;5009732;28;20463;-83
2021/04/27 08:37:17;;;;;;;4.10;3.80;;;13.30;48.10;;;;;;5011967;28;20459;-79
2021/04/27 08:39:44;;;;;;;3.40;3.10;;;13.50;48.80;;;;;;5011716;28;20428;-78
2021/04/27 08:42:13;;;;;;;3.87;3.67;;;13.50;47.60;;;;;;5011924;28;20425;-78
2021/04/27 08:44:40;;;;;;;6.37;3.83;;;13.50;46.80;;;;;;5012977;28;20770;-78
2021/04/27 08:47:11;;;;;;;8.73;3.90;;;13.60;45.20;;;;;;4995764;28;20497;-79
2021/04/27 08:49:42;;;;;;;3.93;3.60;;;13.60;45.10;;;;;;5015096;28;20443;-78
2021/04/27 08:52:08;;;;;;;4.27;3.93;;;13.40;43.70;;;;;;4999673;28;20494;-78
2021/04/27 08:54:35;;;;;;;3.60;3.30;;;13.50;44.20;;;;;;5029478;28;20459;-78
2021/04/27 08:57:06;;;;;;;7.10;4.13;;;13.60;45.10;;;;;;5016537;28;20923;-78
2021/04/27 08:59:32;;;;;;;4.80;3.47;;;13.70;44.40;;;;;;5015197;28;20440;-78
2021/04/27 09:02:01;;;;;;;7.90;4.73;;;13.90;43.90;;;;;;5011984;28;20444;-78
2021/04/27 09:04:46;;;;;;;7.93;4.80;;;13.90;44.50;;;;;;5011704;28;20458;-78
2021/04/27 09:07:19;;;;;;;7.60;4.07;;;14.20;44.30;;;;;;4996882;28;20718;-78
2021/04/27 09:09:55;;;;;;;10.13;5.17;;;14.30;44.70;;;;;;5012572;28;20428;-78
2021/04/27 09:12:32;;;;;;;6.83;3.77;;;14.50;46.10;;;;;;4995878;28;20547;-77
2021/04/27 09:15:00;;;;;;;4.63;3.47;;;14.60;43.40;;;;;;5013733;28;20573;-78
2021/04/27 09:17:32;;;;;;;8.07;4.20;;;14.80;43.00;;;;;;5015257;28;20528;-77
2021/04/27 09:20:01;;;;;;;9.47;4.77;;;14.80;40.20;;;;;;5015951;28;20437;-77
2021/04/27 09:22:34;;;;;;;6.07;4.20;;;14.90;40.80;;;;;;5031840;28;21214;-77
2021/04/27 09:25:03;;;;;;;7.80;4.33;;;15.10;43.20;;;;;;5027480;28;20534;-77
2021/04/27 09:27:33;;;;;;;4.67;4.27;;;15.40;42.60;;;;;;5015983;28;20428;-77
2021/04/27 09:30:28;;;;;;;5.57;4.30;;;15.40;40.30;;;;;;5014668;28;20448;-77
2021/04/27 09:32:57;;;;;;;6.20;4.53;;;15.40;39.00;;;;;;4996459;28;20481;-76
2021/04/27 09:35:46;;;;;;;5.87;4.30;;;15.50;39.50;;;;;;4995182;28;20764;-77
2021/04/27 09:38:24;;;;;;;4.90;4.57;;;15.70;40.50;;;;;;4998969;28;20914;-77
2021/04/27 09:41:05;;;;;;;3.80;3.50;;;16.10;41.40;;;;;;5015265;28;20441;-78
2021/04/27 09:43:36;;;;;;;3.80;3.50;;;16.20;39.60;;;;;;5031270;28;20469;-77
2021/04/27 09:46:05;;;;;;;4.97;4.57;;;16.30;39.30;;;;;;5014442;28;20554;-77
2021/04/27 09:48:35;;;;;;;5.00;4.50;;;16.40;38.90;;;;;;5015678;28;20754;-78
2021/04/27 09:51:15;;;;;;;5.00;4.33;;;16.60;38.30;;;;;;5013639;28;20480;-77
2021/04/27 09:53:55;;;;;;;5.20;4.37;;;16.90;39.00;;;;;;5015527;28;20501;-77
2021/04/27 09:56:46;;;;;;;5.00;4.60;;;17.20;38.40;;;;;;5014002;28;20438;-77
2021/04/27 09:59:31;;;;;;;4.97;4.50;;;17.30;37.80;;;;;;5014980;28;20423;-78
2021/04/27 10:02:09;;;;;;;5.30;4.77;;;17.60;38.00;;;;;;5015175;28;20448;-77
2021/04/27 10:04:40;;;;;;;5.07;4.53;;;17.80;36.90;;;;;;5030457;28;20450;-78
2021/04/27 10:07:07;;;;;;;4.83;4.53;;;17.80;37.70;;;;;;5015106;28;20439;-79
2021/04/27 10:09:33;;;;;;;4.20;4.00;;;17.90;38.40;;;;;;4997454;28;20431;-78
2021/04/27 10:12:01;;;;;;;5.20;4.87;;;18.00;36.30;;;;;;5014988;28;20463;-79
2021/04/27 10:14:29;;;;;;;4.60;3.73;;;18.20;36.40;;;;;;5014014;28;20528;-78
2021/04/27 10:16:55;;;;;;;9.33;5.37;;;18.30;34.90;;;;;;4997463;28;20534;-79
2021/04/27 10:19:22;;;;;;;7.93;4.30;;;18.40;34.60;;;;;;5015063;28;20223;-79
2021/04/27 10:21:49;;;;;;;5.50;5.10;;;18.60;34.20;;;;;;5014478;28;20932;-79
2021/04/27 10:24:22;;;;;;;9.10;4.03;;;18.80;36.90;;;;;;5013940;28;20453;-79
2021/04/27 10:26:51;;;;;;;5.10;4.60;;;19.00;36.50;;;;;;5014337;28;20437;-79
2021/04/27 10:29:24;;;;;;;4.80;4.30;;;19.10;35.00;;;;;;4996962;28;20504;-79
2021/04/27 10:32:23;;;;;;;5.70;5.20;;;19.40;35.70;;;;;;4997000;28;20961;-79
2021/04/27 10:34:58;;;;;;;4.70;4.40;;;19.20;33.40;;;;;;4977954;28;20425;-79
2021/04/27 10:37:26;;;;;;;5.13;4.13;;;19.00;32.00;;;;;;5013623;28;20461;-79
2021/04/27 10:39:52;;;;;;;5.30;4.90;;;19.00;33.50;;;;;;5014777;28;20980;-79
2021/04/27 10:42:20;;;;;;;4.97;4.57;;;19.00;33.60;;;;;;4997157;28;20894;-79
2021/04/27 10:44:55;;;;;;;6.37;5.33;;;19.20;32.70;;;;;;4994142;28;20922;-79
2021/04/27 10:47:26;;;;;;;5.80;5.30;;;19.50;33.10;;;;;;5007037;28;20440;-79
2021/04/27 10:49:56;;;;;;;5.67;5.03;;;19.50;31.30;;;;;;5029870;28;20435;-79
2021/04/27 10:52:28;;;;;;;5.43;4.93;;;19.40;31.70;;;;;;5029588;28;20481;-80
2021/04/27 10:55:26;;;;;;;5.40;4.90;;;19.70;32.80;;;;;;5013955;28;20495;-79
2021/04/27 10:57:57;;;;;;;17.10;5.30;;;19.40;32.00;;;;;;5006349;28;20452;-79
2021/04/27 11:00:33;;;;;;;4.80;4.40;;;19.60;32.10;;;;;;4961905;28;20437;-79
2021/04/27 11:03:24;;;;;;;5.70;5.30;;;19.90;32.50;;;;;;5011667;28;20438;-79
2021/04/27 11:05:59;;;;;;;4.80;4.40;;;20.40;32.80;;;;;;5009053;28;20463;-79
2021/04/27 11:08:54;;;;;;;5.17;4.73;;;21.00;32.60;;;;;;5010399;28;20780;-79
2021/04/27 11:11:27;;;;;;;7.40;5.80;;;21.40;31.50;;;;;;5012136;28;20435;-79
2021/04/27 11:14:20;;;;;;;5.53;5.13;;;21.90;30.90;;;;;;5028592;28;20251;-79
2021/04/27 11:16:57;;;;;;;7.10;4.87;;;22.10;30.90;;;;;;5013110;28;20448;-79
2021/04/27 11:19:34;;;;;;;5.80;5.50;;;22.00;29.80;;;;;;5006216;28;20751;-79
2021/04/27 11:22:17;;;;;;;5.83;5.43;;;22.00;30.00;;;;;;4982133;28;20613;-80
2021/04/27 11:24:43;;;;;;;6.27;4.73;;;22.40;29.60;;;;;;4993772;28;20429;-80
2021/04/27 11:27:26;;;;;;;5.07;4.57;;;22.40;28.20;;;;;;5000964;28;20436;-80
2021/04/27 11:30:10;;;;;;;6.03;5.53;;;21.90;29.90;;;;;;5013491;28;20897;-79
2021/04/27 11:32:40;;;;;;;6.10;5.60;;;21.60;29.00;;;;;;5013512;28;20459;-79
2021/04/27 11:35:16;;;;;;;6.83;6.17;;;21.90;29.50;;;;;;5029427;28;20401;-79
2021/04/27 11:37:46;;;;;;;5.80;5.23;;;22.30;29.70;;;;;;5014064;28;20450;-79
2021/04/27 11:40:35;;;;;;;6.00;5.60;;;22.70;28.20;;;;;;5029560;28;20427;-79
2021/04/27 11:43:10;;;;;;;5.23;4.83;;;23.10;28.00;;;;;;5013545;28;20436;-79
2021/04/27 11:45:48;;;;;;;6.80;6.40;;;23.50;27.40;;;;;;4994479;28;20416;-79
2021/04/27 11:48:21;;;;;;;6.90;6.50;;;24.10;26.70;;;;;;5026550;28;20470;-79
2021/04/27 11:50:50;;;;;;;6.37;5.97;;;24.60;27.30;;;;;;5028773;28;20440;-79
2021/04/27 11:53:21;;;;;;;6.57;6.10;;;25.20;27.70;;;;;;4995253;28;20961;-80
2021/04/27 11:55:54;;;;;;;13.90;7.47;;;25.50;26.90;;;;;;4994298;28;20494;-79
2021/04/27 11:58:20;;;;;;;5.90;5.37;;;25.30;26.40;;;;;;4993818;28;20438;-79
2021/04/27 12:00:56;;;;;;;6.20;5.80;;;25.40;26.80;;;;;;4994232;28;20417;-80
2021/04/27 12:03:34;;;;;;;7.70;6.10;;;25.20;25.70;;;;;;5010503;28;20284;-79
2021/04/27 12:08:52;;;;;;;5.60;5.20;;;24.80;26.70;;;;;;4994050;28;20421;-79
2021/04/27 12:11:33;;;;;;;7.53;5.70;;;24.30;25.60;;;;;;4995410;28;20560;-79
2021/04/27 12:14:09;;;;;;;5.73;5.20;;;24.20;26.70;;;;;;5012800;28;20420;-79
2021/04/27 12:16:38;;;;;;;7.33;6.83;;;24.60;26.10;;;;;;5012590;28;20751;-80
2021/04/27 12:19:08;;;;;;;5.20;4.80;;;25.10;26.50;;;;;;5013556;28;20881;-80
2021/04/27 12:21:53;;;;;;;6.13;5.63;;;25.80;26.40;;;;;;5012861;28;20476;-80
2021/04/27 12:24:26;;;;;;;6.10;4.90;;;26.20;25.30;;;;;;4996913;28;20448;-80
2021/04/27 12:27:06;;;;;;;6.17;5.77;;;26.10;25.20;;;;;;5013184;28;20515;-80
2021/04/27 12:29:37;;;;;;;6.43;6.00;;;26.10;24.80;;;;;;4997680;28;20468;-80
2021/04/27 12:32:14;;;;;;;6.90;6.30;;;25.80;24.40;;;;;;5013261;28;20478;-80
2021/04/27 12:35:26;;;;;;;5.63;5.23;;;25.90;24.80;;;;;;4996762;28;20406;-80
2021/04/27 12:38:01;;;;;;;6.40;5.90;;;25.80;25.30;;;;;;5009939;28;20436;-80
2021/04/27 12:40:33;;;;;;;6.37;5.87;;;25.50;25.20;;;;;;5004344;28;20526;-80
2021/04/27 12:43:07;;;;;;;6.23;5.73;;;25.30;24.70;;;;;;5013228;28;20448;-79
2021/04/27 12:45:53;;;;;;;7.30;5.50;;;25.50;25.40;;;;;;4996932;28;20768;-80
2021/04/27 12:48:22;;;;;;;6.30;5.70;;;25.20;24.80;;;;;;4997341;28;20420;-80
2021/04/27 12:51:06;;;;;;;7.33;6.80;;;24.80;24.90;;;;;;5023912;28;20428;-80
2021/04/27 12:53:37;;;;;;;6.93;6.33;;;24.40;25.70;;;;;;5030327;28;20435;-80
2021/04/27 12:56:16;;;;;;;6.50;6.10;;;24.20;26.40;;;;;;5016659;28;20805;-80
2021/04/27 12:58:44;;;;;;;8.57;6.03;;;24.00;26.00;;;;;;5017060;28;20455;-80
2021/04/27 13:01:23;;;;;;;6.97;6.43;;;24.30;26.00;;;;;;4996278;28;20422;-79
2021/04/27 13:04:01;;;;;;;5.33;4.73;;;24.70;26.10;;;;;;5011740;28;20457;-80
2021/04/27 13:06:33;;;;;;;6.97;6.50;;;24.60;25.20;;;;;;5019307;28;20480;-80
2021/04/27 13:09:09;;;;;;;7.80;7.20;;;24.80;25.80;;;;;;5012883;28;20737;-80
2021/04/27 13:11:36;;;;;;;7.53;6.93;;;24.70;25.90;;;;;;4996849;28;20452;-79
2021/04/27 13:14:24;;;;;;;7.10;6.50;;;24.10;25.80;;;;;;4997040;28;20440;-79
2021/04/27 13:16:51;;;;;;;7.03;6.33;;;23.80;26.50;;;;;;5012310;28;20850;-80
2021/04/27 13:19:22;;;;;;;7.50;6.70;;;23.70;26.20;;;;;;5015040;28;20428;-80
2021/04/27 13:22:06;;;;;;;6.40;6.00;;;23.70;25.90;;;;;;5015404;28;20476;-79
2021/04/27 13:24:41;;;;;;;6.87;6.37;;;23.70;25.70;;;;;;5031396;28;20535;-79
2021/04/27 13:27:10;;;;;;;6.80;6.20;;;23.50;25.40;;;;;;5015113;28;20415;-80